Time;durP1;ratioP1;P1;durP2;ratioP2;P2;SDS_P1;SDS_P2;PMS_P1;PMS_P2;Temp;Humidity;BMP_temperature;BMP_pressure;BME280_temperature;BME280_humidity;BME280_pressure;Samples;Min_cycle;Max_cycle;Signal;HPM_P1;HPM_P2
2023/04/14 00:00:05;;;;;;;34.78;2.08;;;;;;;21.23;56.58;98558.38;7314255;19;130516;-41
2023/04/14 00:02:34;;;;;;;63.13;3.50;;;;;;;21.31;57.50;98575.88;7311995;19;131868;-38
2023/04/14 00:05:00;;;;;;;59.13;3.58;;;;;;;21.31;57.04;98571.47;7309809;19;129241;-37
2023/04/14 00:07:25;;;;;;;56.30;3.47;;;;;;;21.32;56.62;98560.00;7314046;19;129890;-38
2023/04/14 00:09:50;;;;;;;36.72;2.10;;;;;;;21.31;57.10;98553.16;7313682;19;130098;-37
2023/04/14 00:12:16;;;;;;;60.63;3.38;;;;;;;21.33;56.94;98553.00;7315343;19;128948;-39
2023/04/14 00:14:44;;;;;;;52.97;3.15;;;;;;;21.33;58.20;98553.81;7313386;19;130436;-38
2023/04/14 00:17:10;;;;;;;117.80;6.68;;;;;;;21.34;56.17;98549.38;7305862;19;130428;-39
2023/04/14 00:19:35;;;;;;;30.92;1.92;;;;;;;21.31;56.88;98555.78;7311440;19;129081;-38
2023/04/14 00:22:01;;;;;;;64.20;3.80;;;;;;;21.33;57.04;98550.38;7315940;19;129526;-39
2023/04/14 00:24:26;;;;;;;44.23;2.67;;;;;;;21.33;57.52;98553.81;7313459;19;129324;-37
2023/04/14 00:26:52;;;;;;;30.50;2.03;;;;;;;21.36;57.18;98553.47;7314510;19;129216;-38
2023/04/14 00:29:17;;;;;;;57.70;3.40;;;;;;;21.33;56.94;98556.44;7314494;19;129146;-37
2023/04/14 00:31:42;;;;;;;28.33;1.75;;;;;;;21.40;57.19;98565.22;7316174;19;129355;-38
2023/04/14 00:34:08;;;;;;;38.00;2.33;;;;;;;21.35;56.40;98562.31;7311231;19;129522;-38
2023/04/14 00:36:33;;;;;;;42.58;2.35;;;;;;;21.36;57.48;98558.72;7315734;19;129812;-39
2023/04/14 00:38:59;;;;;;;62.67;3.65;;;;;;;21.36;56.83;98563.94;7312772;19;131689;-37
2023/04/14 00:41:25;;;;;;;27.23;1.70;;;;;;;21.36;57.41;98558.72;7315626;19;129342;-37
2023/04/14 00:43:53;;;;;;;55.53;3.28;;;;;;;21.33;56.68;98559.06;7310059;19;130578;-37
2023/04/14 00:46:20;;;;;;;43.13;2.35;;;;;;;21.31;58.07;98553.16;7314234;19;128863;-39
2023/04/14 00:48:46;;;;;;;28.65;1.73;;;;;;;21.31;57.91;98554.94;7314853;19;128936;-39
2023/04/14 00:51:11;;;;;;;35.37;2.07;;;;;;;21.34;57.60;98560.66;7311629;19;131159;-38
2023/04/14 00:53:37;;;;;;;45.40;2.67;;;;;;;21.31;57.44;98561.00;7308634;19;130282;-37
2023/04/14 00:56:03;;;;;;;47.65;2.67;;;;;;;21.32;58.29;98553.97;7312928;19;129594;-39
2023/04/14 00:58:29;;;;;;;49.88;3.33;;;;;;;21.31;58.43;98563.63;7312108;19;130108;-38
2023/04/14 01:00:55;;;;;;;28.73;1.80;;;;;;;21.28;57.82;98558.72;7313284;19;128985;-38
2023/04/14 01:03:23;;;;;;;72.55;4.35;;;;;;;21.28;58.03;98566.56;7311385;19;130178;-39
2023/04/14 01:05:48;;;;;;;43.97;2.47;;;;;;;21.27;57.45;98562.28;7312081;19;130528;-40
2023/04/14 01:08:14;;;;;;;5.72;0.70;;;;;;;21.18;56.97;98547.59;7311741;19;129918;-38
2023/04/14 01:10:44;;;;;;;62.37;3.63;;;;;;;21.26;57.15;98567.69;7314647;19;129276;-39
2023/04/14 01:13:34;;;;;;;46.03;2.70;;;;;;;21.26;58.43;98567.69;7311262;19;129625;-38
2023/04/14 01:16:04;;;;;;;62.20;3.67;;;;;;;21.26;58.31;98567.69;7311199;19;129886;-38
2023/04/14 01:18:51;;;;;;;53.95;2.90;;;;;;;21.27;58.48;98570.13;7309343;19;129618;-38
2023/04/14 01:21:24;;;;;;;54.97;3.10;;;;;;;21.26;58.01;98571.13;7313720;19;128761;-37
2023/04/14 01:24:13;;;;;;;36.83;2.15;;;;;;;21.28;58.61;98569.16;7312925;19;129648;-38
2023/04/14 01:26:41;;;;;;;61.45;3.72;;;;;;;21.26;57.15;98578.97;7311836;19;129693;-38
2023/04/14 01:29:48;;;;;;;42.50;2.65;;;;;;;21.23;58.39;98583.69;7313313;19;129520;-38
2023/04/14 01:32:20;;;;;;;52.20;2.92;;;;;;;21.20;58.04;98584.84;7308112;19;129210;-39
2023/04/14 01:35:07;;;;;;;29.73;1.70;;;;;;;21.17;58.84;98579.94;7313631;19;129720;-38
2023/04/14 01:37:37;;;;;;;39.20;2.58;;;;;;;21.17;57.70;98579.94;7308491;19;131285;-38
2023/04/14 01:40:13;;;;;;;33.05;2.17;;;;;;;21.14;58.81;98577.63;7308894;19;130627;-38
2023/04/14 01:42:45;;;;;;;49.75;2.80;;;;;;;21.16;58.46;98575.69;7312308;19;128851;-40
2023/04/14 01:45:23;;;;;;;57.88;3.33;;;;;;;21.16;59.50;98580.91;7314070;19;129303;-37
2023/04/14 01:47:50;;;;;;;53.30;3.05;;;;;;;21.16;57.45;98572.25;7310682;19;131813;-38
2023/04/14 01:50:17;;;;;;;98.28;5.60;;;;;;;21.17;58.76;98577.31;7312063;19;129339;-38
2023/04/14 01:52:46;;;;;;;;;;;;;;;21.23;58.88;98584.53;7313921;19;129432;-39
2023/04/14 01:55:15;;;;;;;71.97;4.28;;;;;;;21.16;57.69;98591.38;7313177;19;130234;-38
2023/04/14 01:57:43;;;;;;;54.15;2.80;;;;;;;21.13;57.29;98588.25;7309225;19;131067;-39
2023/04/14 02:00:10;;;;;;;47.95;2.97;;;;;;;21.15;57.75;98581.91;7310105;19;128860;-39
2023/04/14 02:02:38;;;;;;;103.88;5.88;;;;;;;21.16;58.28;98578.31;7305923;19;129939;-37
2023/04/14 02:05:07;;;;;;;36.58;2.47;;;;;;;21.15;58.99;98568.00;7311624;19;130257;-43
2023/04/14 02:07:34;;;;;;;71.07;4.05;;;;;;;21.16;58.57;98554.78;7309586;19;129355;-38
2023/04/14 02:10:01;;;;;;;84.32;4.68;;;;;;;21.17;57.43;98560.84;7309942;19;130549;-38
2023/04/14 02:12:29;;;;;;;29.45;1.83;;;;;;;21.11;59.10;98559.66;7312506;19;129092;-39
2023/04/14 02:14:59;;;;;;;13.80;1.25;;;;;;;21.19;57.83;98557.06;7309677;19;129668;-37
2023/04/14 02:17:25;;;;;;;55.05;3.17;;;;;;;21.16;58.56;98560.00;7306050;19;130388;-38
2023/04/14 02:19:52;;;;;;;43.90;2.58;;;;;;;21.13;58.88;98560.34;7309270;19;129196;-38
2023/04/14 02:22:18;;;;;;;12.75;0.82;;;;;;;21.11;58.51;98559.66;7312983;19;129058;-37
2023/04/14 02:24:46;;;;;;;27.77;1.83;;;;;;;21.13;58.08;98560.34;7310014;19;129494;-38
2023/04/14 02:27:21;;;;;;;40.88;2.33;;;;;;;21.14;58.96;98564.56;7310155;19;129569;-38
2023/04/14 02:29:52;;;;;;;53.13;2.90;;;;;;;21.13;58.68;98552.50;7306477;19;128808;-37
2023/04/14 02:32:23;;;;;;;35.28;2.08;;;;;;;21.11;58.78;98559.66;7312666;19;128876;-40
2023/04/14 02:35:02;;;;;;;35.03;2.25;;;;;;;21.10;58.64;98552.81;7310954;19;129703;-38
2023/04/14 02:37:36;;;;;;;8.93;0.90;;;;;;;21.12;58.65;98563.91;7308655;19;129269;-37
2023/04/14 02:40:16;;;;;;;18.40;1.38;;;;;;;21.15;59.23;98563.59;7307313;19;130386;-38
2023/04/14 02:42:45;;;;;;;54.35;3.33;;;;;;;21.12;58.74;98561.28;7311145;19;130457;-38
2023/04/14 02:45:20;;;;;;;80.93;4.43;;;;;;;21.00;58.29;98553.94;7310685;19;131061;-41
2023/04/14 02:47:48;;;;;;;67.78;3.80;;;;;;;21.09;57.79;98569.47;7307834;19;130750;-39
2023/04/14 02:50:17;;;;;;;29.83;1.70;;;;;;;21.09;58.89;98568.66;7312243;19;129129;-38
2023/04/14 02:52:46;;;;;;;52.05;3.10;;;;;;;21.08;58.23;98564.41;7310667;19;128905;-39
2023/04/14 02:55:12;;;;;;;69.32;3.92;;;;;;;21.09;58.60;98569.47;7311084;19;129411;-38
2023/04/14 02:57:38;;;;;;;81.80;4.73;;;;;;;21.07;58.06;98568.84;7307881;19;129875;-38
2023/04/14 03:00:05;;;;;;;35.33;2.25;;;;;;;21.10;57.64;98560.66;7308981;19;128792;-38
2023/04/14 03:02:32;;;;;;;45.88;2.67;;;;;;;21.03;58.51;98557.06;7310949;19;128925;-37
2023/04/14 03:04:58;;;;;;;34.25;2.20;;;;;;;21.13;58.17;98567.34;7310831;19;129734;-38
2023/04/14 03:07:25;;;;;;;59.67;3.47;;;;;;;21.10;57.92;98568.50;7308372;19;129370;-39
2023/04/14 03:09:50;;;;;;;;;;;;;;;21.16;59.08;98562.63;7311315;19;129200;-37
2023/04/14 03:12:17;;;;;;;32.10;1.85;;;;;;;21.10;58.56;98563.28;7312324;19;128891;-38
2023/04/14 03:14:43;;;;;;;52.38;3.15;;;;;;;21.07;58.71;98561.00;7314113;19;129181;-38
2023/04/14 03:17:13;;;;;;;60.47;3.37;;;;;;;21.08;57.38;98565.22;7310542;19;130474;-38
2023/04/14 03:19:40;;;;;;;74.40;4.47;;;;;;;21.08;57.81;98564.41;7306805;19;130124;-38
2023/04/14 03:22:09;;;;;;;52.25;2.90;;;;;;;21.06;59.09;98564.56;7318855;19;129680;-40
2023/04/14 03:24:36;;;;;;;29.20;1.75;;;;;;;21.04;58.62;98558.69;7315362;19;130711;-37
2023/04/14 03:27:15;;;;;;;26.98;1.77;;;;;;;21.05;59.38;98560.31;7315243;19;129599;-41
2023/04/14 03:29:46;;;;;;;57.78;3.30;;;;;;;21.06;58.63;98561.13;7314066;19;129159;-38
2023/04/14 03:32:13;;;;;;;48.85;2.90;;;;;;;21.03;58.43;98556.22;7315236;19;129867;-38
2023/04/14 03:34:45;;;;;;;41.75;2.60;;;;;;;21.04;58.46;98563.91;7316102;19;131317;-38
2023/04/14 03:37:15;;;;;;;28.45;2.03;;;;;;;21.16;57.72;98556.56;7315312;19;131464;-38
2023/04/14 03:39:41;;;;;;;43.33;2.55;;;;;;;21.00;57.69;98551.31;7311527;19;129846;-39
2023/04/14 03:42:07;;;;;;;31.13;1.77;;;;;;;20.66;57.19;98551.38;7317379;19;129133;-39
2023/04/14 03:44:35;;;;;;;90.50;5.20;;;;;;;20.59;57.84;98545.97;7314323;19;130108;-38
2023/04/14 03:47:02;;;;;;;49.13;2.90;;;;;;;20.67;57.68;98539.97;7314244;19;130270;-39
2023/04/14 03:49:32;;;;;;;60.10;3.28;;;;;;;20.80;57.68;98553.38;7316062;19;129106;-37
2023/04/14 03:52:01;;;;;;;49.42;2.63;;;;;;;20.95;57.23;98543.94;7317573;19;128754;-37
2023/04/14 03:54:29;;;;;;;52.40;2.97;;;;;;;21.01;56.95;98543.31;7316498;19;130236;-38
2023/04/14 03:56:56;;;;;;;16.02;1.35;;;;;;;21.10;56.20;98531.91;7312911;19;130327;-38
2023/04/14 03:59:23;;;;;;;;;;;;;;;21.18;56.72;98528.47;7314633;19;130103;-40
2023/04/14 04:01:49;;;;;;;49.35;2.78;;;;;;;21.25;56.07;98529.47;7315887;19;129348;-37
2023/04/14 04:04:16;;;;;;;30.35;1.95;;;;;;;21.32;55.94;98535.69;7314698;19;129569;-38
2023/04/14 04:06:42;;;;;;;12.95;1.13;;;;;;;21.42;55.76;98531.09;7314243;19;130752;-37
2023/04/14 04:09:11;;;;;;;36.67;2.00;;;;;;;21.47;55.85;98534.84;7309970;19;130120;-39
2023/04/14 04:11:38;;;;;;;73.78;4.13;;;;;;;21.50;55.71;98539.75;7313738;19;130970;-38
2023/04/14 04:14:05;;;;;;;39.50;2.50;;;;;;;21.64;54.83;98539.09;7314607;19;129520;-38
2023/04/14 04:16:34;;;;;;;33.90;2.03;;;;;;;21.66;54.91;98538.91;7315048;19;130258;-38
2023/04/14 04:19:04;;;;;;;32.10;1.90;;;;;;;21.74;55.25;98547.56;7315017;19;129612;-37
2023/04/14 04:21:32;;;;;;;49.60;2.88;;;;;;;21.82;54.31;98547.59;7314613;19;130362;-37
2023/04/14 04:24:00;;;;;;;17.13;1.70;;;;;;;21.88;54.44;98536.44;7314603;19;130276;-39
2023/04/14 04:26:26;;;;;;;54.75;3.00;;;;;;;21.82;54.62;98529.28;7310862;19;129664;-38
2023/04/14 04:28:53;;;;;;;28.27;2.08;;;;;;;22.03;54.53;98546.25;7313512;19;129528;-38
2023/04/14 04:31:21;;;;;;;62.05;3.35;;;;;;;22.09;53.80;98541.16;7314514;19;129661;-39
2023/04/14 04:33:47;;;;;;;32.17;1.92;;;;;;;22.17;53.70;98553.38;7312835;19;130435;-37
2023/04/14 04:36:13;;;;;;;42.38;2.42;;;;;;;22.10;53.55;98547.22;7315110;19;129719;-38
2023/04/14 04:38:38;;;;;;;44.38;2.83;;;;;;;22.11;53.76;98548.84;7309976;19;130122;-38
2023/04/14 04:41:04;;;;;;;60.13;3.47;;;;;;;22.08;54.29;98555.22;7315667;19;129485;-39
2023/04/14 04:43:29;;;;;;;38.00;2.35;;;;;;;21.95;53.94;98553.13;7312751;19;131418;-39
2023/04/14 04:45:57;;;;;;;32.40;2.10;;;;;;;21.77;54.75;98542.03;7314278;19;131909;-37
2023/04/14 04:48:23;;;;;;;23.98;1.48;;;;;;;21.74;54.66;98555.44;7312110;19;129268;-37
2023/04/14 04:50:48;;;;;;;48.65;2.65;;;;;;;21.63;55.22;98555.78;7315070;19;130550;-41
2023/04/14 04:53:13;;;;;;;82.45;5.10;;;;;;;21.55;55.66;98558.38;7310368;19;129188;-38
2023/04/14 04:55:42;;;;;;;33.07;2.07;;;;;;;21.45;55.94;98562.16;7306028;19;131091;-39
2023/04/14 04:58:08;;;;;;;157.15;9.00;;;;;;;21.37;56.32;98560.34;7310057;19;131003;-40
2023/04/14 05:00:33;;;;;;;31.97;2.00;;;;;;;21.30;56.36;98569.84;7307757;19;130316;-38
2023/04/14 05:02:59;;;;;;;14.18;1.33;;;;;;;21.22;56.02;98558.56;7314153;19;129238;-41
2023/04/14 05:05:24;;;;;;;44.00;2.83;;;;;;;21.17;57.17;98563.44;7308334;19;132139;-39
2023/04/14 05:07:50;;;;;;;33.38;2.10;;;;;;;21.05;57.05;98552.50;7313832;19;129020;-38
2023/04/14 05:10:15;;;;;;;53.67;3.03;;;;;;;21.13;56.65;98565.56;7309546;19;129524;-39
2023/04/14 05:12:41;;;;;;;38.95;2.80;;;;;;;21.12;56.29;98576.97;7315797;19;129527;-42
2023/04/14 05:15:09;;;;;;;55.35;3.47;;;;;;;21.11;56.47;98564.06;7309308;19;130332;-39
2023/04/14 05:17:36;;;;;;;39.65;2.35;;;;;;;20.98;56.43;98548.88;7312892;19;128876;-38
2023/04/14 05:20:04;;;;;;;35.60;2.15;;;;;;;21.03;57.00;98561.44;7307359;19;131306;-38
2023/04/14 05:22:30;;;;;;;38.42;2.35;;;;;;;20.99;56.59;98571.41;7313116;19;130081;-39
2023/04/14 05:24:56;;;;;;;35.22;2.28;;;;;;;20.92;57.08;98580.03;7303456;19;129613;-38
2023/04/14 05:27:21;;;;;;;30.20;2.03;;;;;;;20.87;57.61;98572.66;7312622;19;129962;-38
2023/04/14 05:29:47;;;;;;;91.47;4.85;;;;;;;20.88;56.95;98569.06;7307139;19;130283;-39
2023/04/14 05:32:13;;;;;;;29.92;2.28;;;;;;;20.93;56.96;98561.56;7314277;19;129394;-38
2023/04/14 05:34:39;;;;;;;144.13;8.23;;;;;;;21.06;56.83;98571.56;7311342;19;130559;-41
2023/04/14 05:37:05;;;;;;;26.45;1.85;;;;;;;21.15;56.59;98568.00;7312648;19;129137;-39
2023/04/14 05:39:31;;;;;;;57.78;3.20;;;;;;;21.27;56.28;98577.19;7311832;19;128973;-41
2023/04/14 05:41:58;;;;;;;28.60;2.20;;;;;;;21.37;55.77;98576.03;7305589;19;130058;-39
2023/04/14 05:44:24;;;;;;;24.10;1.65;;;;;;;21.51;55.73;98583.22;7313856;19;129798;-41
2023/04/14 05:46:49;;;;;;;39.10;2.25;;;;;;;21.61;55.73;98581.28;7306887;19;129532;-41
2023/04/14 05:49:14;;;;;;;36.35;2.13;;;;;;;21.68;54.99;98589.28;7311940;19;129721;-39
2023/04/14 05:51:40;;;;;;;28.40;1.73;;;;;;;21.65;55.10;98593.03;7308971;19;130356;-39
2023/04/14 05:54:05;;;;;;;49.40;2.97;;;;;;;21.68;54.84;98584.84;7310716;19;130304;-39
2023/04/14 05:56:31;;;;;;;51.78;2.88;;;;;;;21.51;55.52;98578.00;7303786;19;130871;-39
2023/04/14 05:58:56;;;;;;;45.08;2.58;;;;;;;21.53;55.96;98585.69;7311077;19;129610;-39
2023/04/14 06:01:21;;;;;;;29.77;1.88;;;;;;;21.34;55.59;98581.59;7306845;19;130533;-40
2023/04/14 06:03:47;;;;;;;96.03;5.63;;;;;;;21.33;55.90;98587.81;7310462;19;129376;-39
2023/04/14 06:06:12;;;;;;;51.28;2.88;;;;;;;21.22;56.21;98593.31;7305996;19;130649;-39
2023/04/14 06:08:38;;;;;;;52.60;3.10;;;;;;;21.16;56.23;98588.75;7311196;19;129335;-38
2023/04/14 06:11:03;;;;;;;26.25;1.77;;;;;;;21.09;57.02;98592.97;7312789;19;130256;-38
2023/04/14 06:13:28;;;;;;;33.58;2.03;;;;;;;21.02;56.88;98586.78;7310419;19;131326;-38
2023/04/14 06:15:55;;;;;;;68.40;4.03;;;;;;;20.95;57.32;98577.91;7312583;19;129095;-37
2023/04/14 06:18:21;;;;;;;27.27;1.83;;;;;;;20.95;57.49;98582.31;7309785;19;129367;-37
2023/04/14 06:20:47;;;;;;;23.83;1.60;;;;;;;20.99;57.55;98578.44;7308614;19;130948;-38
2023/04/14 06:23:13;;;;;;;35.27;2.37;;;;;;;21.04;57.16;98571.75;7310472;19;130506;-38
2023/04/14 06:25:39;;;;;;;59.47;3.28;;;;;;;21.16;56.92;98570.47;7310104;19;130365;-40
2023/04/14 06:28:04;;;;;;;31.67;2.10;;;;;;;21.26;56.65;98557.22;7309134;19;128960;-37
2023/04/14 06:30:33;;;;;;;20.00;1.55;;;;;;;21.36;55.91;98563.94;7312505;19;130749;-40
2023/04/14 06:33:03;;;;;;;24.13;1.85;;;;;;;21.49;56.03;98556.44;7308032;19;130498;-40
2023/04/14 06:35:31;;;;;;;69.75;4.03;;;;;;;21.67;55.66;98558.84;7310169;19;129972;-39
2023/04/14 06:37:56;;;;;;;143.90;7.82;;;;;;;21.69;55.16;98560.34;7303594;19;129315;-36
2023/04/14 06:40:22;;;;;;;39.38;2.50;;;;;;;21.69;54.80;98560.34;7309282;19;129046;-39
2023/04/14 06:42:47;;;;;;;64.78;3.65;;;;;;;21.66;55.36;98550.22;7308452;19;129352;-38
2023/04/14 06:45:13;;;;;;;183.30;10.27;;;;;;;21.63;55.28;98550.53;7302117;19;129616;-38
2023/04/14 06:47:38;;;;;;;35.75;2.15;;;;;;;21.54;55.15;98546.28;7310129;19;129975;-39
2023/04/14 06:50:04;;;;;;;25.83;1.70;;;;;;;21.42;55.98;98541.56;7315768;19;131225;-39
2023/04/14 06:52:29;;;;;;;75.68;4.45;;;;;;;21.37;56.14;98538.63;7315267;19;129838;-38
2023/04/14 06:54:55;;;;;;;26.90;1.67;;;;;;;21.28;56.33;98537.81;7318005;19;129172;-39
2023/04/14 06:57:20;;;;;;;28.77;1.77;;;;;;;21.22;56.59;98532.41;7313954;19;129839;-40
2023/04/14 06:59:46;;;;;;;80.95;4.63;;;;;;;21.14;56.53;98533.22;7316746;19;129287;-40
2023/04/14 07:02:11;;;;;;;44.23;2.57;;;;;;;21.10;57.01;98531.09;7316387;19;130638;-40
2023/04/14 07:04:36;;;;;;;39.33;2.53;;;;;;;21.01;56.79;98530.25;7319477;19;129122;-39
2023/04/14 07:07:02;;;;;;;44.20;2.67;;;;;;;21.00;56.77;98535.66;7314358;19;129355;-40
2023/04/14 07:09:28;;;;;;;23.40;1.77;;;;;;;20.96;57.26;98535.13;7318120;19;130333;-39
2023/04/14 07:11:55;;;;;;;52.17;3.15;;;;;;;20.96;56.98;98535.13;7311896;19;129489;-40
2023/04/14 07:14:21;;;;;;;38.13;2.47;;;;;;;21.07;57.08;98534.03;7319105;19;129567;-38
2023/04/14 07:16:46;;;;;;;48.75;2.92;;;;;;;21.15;56.57;98529.63;7311455;19;129251;-39
2023/04/14 07:19:12;;;;;;;32.20;2.08;;;;;;;21.25;56.54;98519.00;7313760;19;129064;-39
2023/04/14 07:21:37;;;;;;;102.00;5.57;;;;;;;21.39;55.77;98526.19;7312701;19;130256;-39
2023/04/14 07:24:04;;;;;;;91.50;5.78;;;;;;;21.48;55.15;98526.03;7310798;19;129697;-39
2023/04/14 07:26:29;;;;;;;51.40;3.70;;;;;;;21.42;54.75;98536.34;7315610;19;129669;-39
2023/04/14 07:28:55;;;;;;;43.63;3.10;;;;;;;21.37;54.28;98534.19;7310926;19;129568;-38
2023/04/14 07:31:21;;;;;;;60.58;4.13;;;;;;;21.32;53.82;98541.72;7316489;19;129423;-38
2023/04/14 07:33:46;;;;;;;58.28;3.45;;;;;;;21.25;53.68;98529.47;7313461;19;131049;-38
2023/04/14 07:36:12;;;;;;;44.65;2.88;;;;;;;21.23;53.89;98534.03;7314586;19;128984;-39
2023/04/14 07:38:37;;;;;;;37.35;2.47;;;;;;;21.08;54.61;98531.25;7309722;19;129561;-39
2023/04/14 07:41:05;;;;;;;39.43;2.67;;;;;;;21.00;54.26;98525.19;7313749;19;130362;-39
2023/04/14 07:43:33;;;;;;;41.75;2.78;;;;;;;21.04;54.57;98545.59;7315801;19;129770;-39
2023/04/14 07:46:03;;;;;;;38.85;2.95;;;;;;;20.98;54.48;98541.03;7315512;19;128869;-39
2023/04/14 07:48:29;;;;;;;53.17;3.53;;;;;;;20.95;54.66;98537.91;7309293;19;130594;-39
2023/04/14 07:50:54;;;;;;;82.40;4.80;;;;;;;20.90;54.93;98543.59;7314664;19;129209;-39
2023/04/14 07:53:20;;;;;;;43.90;2.77;;;;;;;20.87;55.04;98549.16;7317322;19;129258;-39
2023/04/14 07:55:45;;;;;;;47.90;3.25;;;;;;;20.77;55.57;98539.81;7313748;19;129115;-38
2023/04/14 07:58:11;;;;;;;53.47;3.47;;;;;;;20.83;54.84;98554.84;7314986;19;130536;-37
2023/04/14 08:00:37;;;;;;;90.07;5.50;;;;;;;20.85;55.79;98552.91;7312735;19;129733;-40
2023/04/14 08:03:03;;;;;;;39.08;2.58;;;;;;;20.85;55.90;98555.50;7315393;19;129119;-42
2023/04/14 08:05:28;;;;;;;56.85;4.00;;;;;;;20.88;55.23;98558.63;7312597;19;129489;-39
2023/04/14 08:07:54;;;;;;;48.70;3.43;;;;;;;20.93;55.65;98555.53;7312894;19;129717;-41
2023/04/14 08:10:19;;;;;;;66.57;3.88;;;;;;;21.01;54.91;98548.56;7316310;19;129958;-41
2023/04/14 08:12:45;;;;;;;42.72;3.38;;;;;;;21.06;55.25;98541.03;7314320;19;131014;-39
2023/04/14 08:15:11;;;;;;;61.87;4.43;;;;;;;21.14;54.82;98551.50;7315214;19;129790;-38
2023/04/14 08:17:37;;;;;;;122.73;7.30;;;;;;;21.25;54.92;98547.75;7311141;19;132848;-39
2023/04/14 08:20:03;;;;;;;53.88;3.67;;;;;;;21.26;54.29;98541.53;7313130;19;129622;-42
2023/04/14 08:22:28;;;;;;;51.75;3.60;;;;;;;21.27;54.41;98536.16;7315977;19;129176;-41
2023/04/14 08:24:53;;;;;;;51.53;3.55;;;;;;;21.24;54.20;98528.63;7314170;19;129832;-39
2023/04/14 08:27:19;;;;;;;63.25;3.72;;;;;;;21.22;54.21;98525.38;7313395;19;129821;-38
2023/04/14 08:29:45;;;;;;;44.00;3.33;;;;;;;21.17;54.94;98532.88;7312906;19;129357;-39
2023/04/14 08:32:11;;;;;;;37.60;2.63;;;;;;;21.14;54.72;98527.97;7314470;19;129699;-38
2023/04/14 08:34:36;;;;;;;40.60;2.83;;;;;;;21.06;55.26;98532.38;7314344;19;129151;-38
2023/04/14 08:37:01;;;;;;;57.42;3.58;;;;;;;20.94;55.46;98521.38;7313954;19;129199;-40
2023/04/14 08:39:27;;;;;;;36.30;2.45;;;;;;;20.98;54.78;98532.38;7314476;19;130186;-38
2023/04/14 08:41:54;;;;;;;39.17;2.70;;;;;;;20.92;55.30;98525.16;7315111;19;130990;-37
2023/04/14 08:44:20;;;;;;;102.30;5.93;;;;;;;20.90;55.76;98521.88;7313296;19;129923;-38
2023/04/14 08:46:50;;;;;;;44.22;2.88;;;;;;;20.86;55.02;98537.06;7311509;19;129976;-41
2023/04/14 08:49:44;;;;;;;44.67;3.15;;;;;;;20.86;55.77;98536.25;7315412;19;130819;-38
2023/04/14 08:52:11;;;;;;;40.95;2.47;;;;;;;20.88;55.52;98531.66;7311145;19;129612;-38
2023/04/14 08:54:40;;;;;;;47.72;3.40;;;;;;;20.87;55.77;98528.25;7314562;19;130306;-40
2023/04/14 08:57:09;;;;;;;42.50;3.00;;;;;;;20.94;55.48;98521.38;7313595;19;129994;-38
2023/04/14 08:59:36;;;;;;;47.85;3.17;;;;;;;21.04;54.77;98524.69;7307447;19;131016;-39
2023/04/14 09:02:04;;;;;;;51.63;3.17;;;;;;;21.02;54.92;98497.94;7314993;19;129592;-38
2023/04/14 09:04:32;;;;;;;30.30;2.58;;;;;;;21.21;54.91;98505.44;7311804;19;129575;-37
2023/04/14 09:06:58;;;;;;;153.23;8.52;;;;;;;21.30;54.38;98514.94;7308824;19;130165;-39
2023/04/14 09:09:24;;;;;;;78.40;4.40;;;;;;;21.31;53.90;98519.16;7305330;19;129616;-38
2023/04/14 09:11:50;;;;;;;103.45;5.45;;;;;;;21.43;53.86;98517.88;7306836;19;129120;-39
2023/04/14 09:14:17;;;;;;;74.35;4.88;;;;;;;21.53;53.99;98515.06;7309342;19;128903;-38
2023/04/14 09:16:42;;;;;;;63.27;3.73;;;;;;;21.50;53.45;98513.59;7307653;19;130026;-38
2023/04/14 09:19:08;;;;;;;63.53;3.65;;;;;;;21.41;54.41;98498.91;7305384;19;130077;-38
2023/04/14 09:21:35;;;;;;;97.35;5.15;;;;;;;21.29;54.00;98484.53;7310203;19;128929;-39
2023/04/14 09:24:00;;;;;;;59.17;3.40;;;;;;;21.32;53.94;98499.88;7308700;19;129347;-39
2023/04/14 09:26:27;;;;;;;58.13;3.73;;;;;;;21.24;54.72;98502.50;7306380;19;130392;-38
2023/04/14 09:28:52;;;;;;;;;;;;;;;21.21;55.16;98502.84;7308150;19;129582;-39
2023/04/14 09:31:19;;;;;;;78.00;4.57;;;;;;;21.13;55.06;98502.84;7308818;19;129170;-38
2023/04/14 09:33:49;;;;;;;69.63;3.92;;;;;;;21.09;55.45;98509.34;7307426;19;129196;-39
2023/04/14 09:36:22;;;;;;;56.63;3.42;;;;;;;21.05;55.87;98502.84;7309439;19;130603;-38
2023/04/14 09:38:49;;;;;;;64.38;4.03;;;;;;;21.01;55.64;98501.50;7302244;19;129325;-38
2023/04/14 09:41:21;;;;;;;97.25;5.57;;;;;;;21.00;55.61;98510.34;7306152;19;128999;-38
2023/04/14 09:43:47;;;;;;;65.07;3.90;;;;;;;21.00;55.87;98502.50;7309228;19;129890;-40
2023/04/14 09:46:14;;;;;;;59.15;3.60;;;;;;;21.02;56.10;98487.50;7306083;19;130380;-39
2023/04/14 09:48:55;;;;;;;42.92;2.72;;;;;;;21.28;55.34;98516.06;7305837;19;130355;-38
2023/04/14 09:51:32;;;;;;;56.25;3.35;;;;;;;21.32;54.71;98494.66;7306089;19;129356;-39
2023/04/14 09:54:04;;;;;;;46.58;2.88;;;;;;;21.53;54.71;98515.91;7307014;19;129411;-39
2023/04/14 09:56:30;;;;;;;79.57;4.55;;;;;;;21.64;54.20;98512.94;7308007;19;130243;-38
2023/04/14 09:58:58;;;;;;;64.35;3.88;;;;;;;21.71;54.17;98511.28;7308783;19;130368;-39
2023/04/14 10:01:27;;;;;;;52.47;3.22;;;;;;;21.68;53.76;98506.38;7304979;19;129398;-39
2023/04/14 10:03:53;;;;;;;38.00;2.53;;;;;;;21.68;54.56;98516.84;7309304;19;129068;-40
2023/04/14 10:06:21;;;;;;;87.70;4.93;;;;;;;21.54;53.86;98498.38;7304070;19;130021;-39
2023/04/14 10:08:48;;;;;;;57.40;3.45;;;;;;;21.53;54.53;98508.06;7306090;19;130384;-39
2023/04/14 10:11:16;;;;;;;63.30;3.95;;;;;;;21.44;54.83;98511.66;7308116;19;129565;-39
2023/04/14 10:13:44;;;;;;;108.38;6.18;;;;;;;21.39;55.21;98502.66;7301323;19;129974;-42
2023/04/14 10:16:09;;;;;;;90.60;4.93;;;;;;;21.35;54.87;98507.41;7308594;19;130194;-41
2023/04/14 10:18:35;;;;;;;130.13;7.03;;;;;;;21.27;55.75;98512.63;7299812;19;130457;-40
2023/04/14 10:21:02;;;;;;;45.47;2.93;;;;;;;21.20;55.38;98495.16;7305602;19;129461;-41
2023/04/14 10:23:30;;;;;;;95.50;5.35;;;;;;;21.15;55.77;98487.81;7301318;19;129717;-37
2023/04/14 10:25:57;;;;;;;79.20;4.55;;;;;;;21.12;56.26;98493.34;7304296;19;131050;-38
2023/04/14 10:28:24;;;;;;;52.78;3.15;;;;;;;21.09;56.13;98488.44;7303521;19;129609;-40
2023/04/14 10:30:52;;;;;;;37.55;2.55;;;;;;;21.07;56.48;98485.22;7303712;19;129213;-38
2023/04/14 10:33:18;;;;;;;83.70;4.78;;;;;;;21.09;56.48;98483.22;7300689;19;129765;-41
2023/04/14 10:35:46;;;;;;;62.38;3.83;;;;;;;21.06;56.00;98467.03;7306720;19;129079;-40
2023/04/14 10:38:13;;;;;;;84.22;4.97;;;;;;;21.29;55.98;98494.16;7298242;19;130776;-41
2023/04/14 10:40:50;;;;;;;31.90;2.53;;;;;;;21.36;55.21;98484.69;7305954;19;129428;-41
2023/04/14 10:43:16;;;;;;;197.43;11.05;;;;;;;21.52;54.48;98487.28;7302341;19;130425;-37
2023/04/14 10:45:58;;;;;;;62.20;3.73;;;;;;;21.69;54.08;98481.84;7302663;19;130109;-41
2023/04/14 10:48:32;;;;;;;60.90;3.75;;;;;;;21.74;54.63;98486.59;7303125;19;129812;-40
2023/04/14 10:50:58;;;;;;;81.15;4.55;;;;;;;21.63;54.14;98466.84;7304720;19;129220;-40
2023/04/14 10:53:25;;;;;;;153.97;8.83;;;;;;;21.64;54.04;98478.94;7302146;19;129479;-39
2023/04/14 10:55:52;;;;;;;61.72;3.67;;;;;;;21.69;54.18;98489.72;7302292;19;129712;-41
2023/04/14 10:58:20;;;;;;;109.68;6.00;;;;;;;21.59;55.01;98485.63;7299710;19;129445;-36
2023/04/14 11:00:45;;;;;;;79.22;4.68;;;;;;;21.44;55.33;98467.19;7302101;19;130235;-40
2023/04/14 11:03:13;;;;;;;94.88;5.55;;;;;;;21.47;54.74;98486.97;7303918;19;129486;-41
2023/04/14 11:05:50;;;;;;;54.03;3.25;;;;;;;21.41;55.58;98482.41;7300276;19;130603;-41
2023/04/14 11:08:23;;;;;;;74.78;4.63;;;;;;;21.31;55.55;98490.41;7300915;19;130558;-39
2023/04/14 11:10:50;;;;;;;76.82;4.43;;;;;;;21.24;55.52;98476.38;7302645;19;129914;-40
2023/04/14 11:13:16;;;;;;;93.35;5.55;;;;;;;21.18;56.23;98468.38;7303048;19;129729;-41
2023/04/14 11:15:56;;;;;;;68.10;4.00;;;;;;;21.16;55.85;98468.53;7299781;19;131616;-40
2023/04/14 11:18:28;;;;;;;62.20;3.60;;;;;;;21.12;56.06;98469.81;7301639;19;130041;-41